createdAt,value
2022-08-01T00:04:46.482Z,13
2022-08-01T00:09:48.086Z,11
2022-08-01T00:14:49.714Z,13
2022-08-01T00:19:51.328Z,13
2022-08-01T00:24:52.902Z,12
2022-08-01T00:30:12.477Z,13
2022-08-01T00:35:16.267Z,14
2022-08-01T00:40:18.076Z,13
2022-08-01T00:45:19.657Z,14
2022-08-01T00:50:21.309Z,14
2022-08-01T00:55:24.008Z,13
2022-08-01T01:00:27.372Z,14
2022-08-01T01:05:29.221Z,15
2022-08-01T01:10:31.068Z,12
2022-08-01T01:15:32.668Z,13
2022-08-01T01:20:34.290Z,14
2022-08-01T01:25:35.989Z,13
2022-08-01T01:30:37.640Z,15
2022-08-01T01:35:39.232Z,14
2022-08-01T01:40:40.834Z,14
2022-08-01T01:45:42.488Z,13
2022-08-01T01:50:44.111Z,14
2022-08-01T01:55:49.972Z,16
2022-08-01T02:00:51.784Z,14
2022-08-01T02:05:53.416Z,14
2022-08-01T02:10:55.058Z,12
2022-08-01T02:15:59.845Z,13
2022-08-01T02:21:02.354Z,13
2022-08-01T02:26:09.800Z,28
2022-08-01T02:31:13.028Z,28
2022-08-01T02:36:29.097Z,25
2022-08-01T02:41:33.391Z,15
2022-08-01T02:46:34.976Z,15
2022-08-01T02:51:36.641Z,16
2022-08-01T02:56:38.281Z,14
2022-08-01T03:01:42.007Z,15
2022-08-01T03:06:45.003Z,17
2022-08-01T03:11:46.901Z,17
2022-08-01T03:16:48.545Z,15
2022-08-01T03:21:50.151Z,15
2022-08-01T03:26:51.768Z,16
2022-08-01T03:31:53.360Z,15
2022-08-01T03:36:54.986Z,15
2022-08-01T03:41:57.013Z,14
2022-08-01T03:46:58.684Z,15
2022-08-01T03:52:00.310Z,14
2022-08-01T03:57:02.005Z,14
2022-08-01T04:02:04.039Z,15
2022-08-01T04:07:05.953Z,14
2022-08-01T04:12:10.095Z,15
2022-08-01T04:17:14.282Z,15
2022-08-01T04:22:16.099Z,13
2022-08-01T04:27:17.734Z,15
2022-08-01T04:32:50.930Z,15
2022-08-01T04:37:52.568Z,15
2022-08-01T04:42:54.160Z,15
2022-08-01T04:47:55.753Z,14
2022-08-01T04:52:57.367Z,12
2022-08-01T04:57:58.947Z,17
2022-08-01T05:03:01.985Z,16
2022-08-01T05:08:03.690Z,15
2022-08-01T05:13:05.299Z,13
2022-08-01T05:18:07.669Z,15
2022-08-01T05:23:11.047Z,14
2022-08-01T05:28:34.451Z,18
2022-08-01T05:33:36.072Z,16
2022-08-01T05:38:37.674Z,16
2022-08-01T05:43:39.396Z,15
2022-08-01T05:48:40.984Z,18
2022-08-01T05:53:42.599Z,14
2022-08-01T05:58:44.250Z,17
2022-08-01T06:03:45.913Z,18
2022-08-01T06:08:47.558Z,15
2022-08-01T06:13:53.158Z,16
2022-08-01T06:18:56.837Z,16
2022-08-01T06:23:58.777Z,16
2022-08-01T06:29:00.359Z,17
2022-08-01T06:34:01.969Z,17
2022-08-01T06:39:03.725Z,14
2022-08-01T06:44:05.339Z,17
2022-08-01T06:49:07.107Z,16
2022-08-01T06:54:08.768Z,16
2022-08-01T06:59:10.419Z,13
2022-08-01T07:04:12.066Z,12
2022-08-01T07:09:14.457Z,13
2022-08-01T07:14:16.420Z,13
2022-08-01T07:19:18.009Z,13
2022-08-01T07:24:21.034Z,13
2022-08-01T07:29:22.688Z,14
2022-08-01T07:34:24.364Z,14
2022-08-01T07:39:25.952Z,14
2022-08-01T07:44:28.350Z,14
2022-08-01T07:49:32.981Z,13
2022-08-01T07:54:37.873Z,11
2022-08-01T07:59:39.548Z,13
2022-08-01T08:04:43.640Z,13
2022-08-01T08:09:51.265Z,13
2022-08-01T08:14:53.232Z,13
2022-08-01T08:19:54.806Z,16
2022-08-01T08:24:56.406Z,10
2022-08-01T08:30:02.665Z,11
2022-08-01T08:35:04.259Z,11
2022-08-01T08:40:05.838Z,12
2022-08-01T08:45:07.472Z,9
2022-08-01T08:50:13.924Z,8
2022-08-01T08:55:15.756Z,7
2022-08-01T09:00:17.414Z,8
2022-08-01T09:05:19.860Z,7
2022-08-01T09:10:22.069Z,8
2022-08-01T09:15:23.801Z,8
2022-08-01T09:20:25.452Z,7
2022-08-01T09:25:29.623Z,8
2022-08-01T09:30:38.379Z,7
2022-08-01T09:35:43.817Z,6
2022-08-01T09:40:45.834Z,6
2022-08-01T09:45:49.027Z,6
2022-08-01T09:50:52.696Z,5
2022-08-01T09:55:54.295Z,5
2022-08-01T10:00:55.884Z,5
2022-08-01T10:05:58.239Z,6
2022-08-01T10:11:01.586Z,6
2022-08-01T10:16:03.885Z,5
2022-08-01T10:21:08.917Z,4
2022-08-01T10:26:12.802Z,6
2022-08-01T10:31:14.777Z,6
2022-08-01T10:36:16.462Z,4
2022-08-01T10:41:18.641Z,3
2022-08-01T10:46:21.064Z,3
2022-08-01T10:51:51.679Z,3
2022-08-01T10:56:56.192Z,3
2022-08-01T11:01:59.058Z,4
2022-08-01T11:07:00.756Z,1
2022-08-01T11:12:02.541Z,2
2022-08-01T11:17:08.488Z,3
2022-08-01T11:22:12.728Z,4
2022-08-01T11:27:14.556Z,4
2022-08-01T11:32:16.857Z,4
2022-08-01T11:37:18.476Z,3
2022-08-01T11:42:20.758Z,4
2022-08-01T11:47:22.486Z,2
2022-08-01T11:52:31.531Z,2
2022-08-01T11:57:35.537Z,4
2022-08-01T12:02:37.691Z,4
2022-08-01T12:07:40.129Z,3
2022-08-01T12:12:41.741Z,3
2022-08-01T12:17:43.640Z,2
2022-08-01T12:22:59.363Z,4
2022-08-01T12:28:01.062Z,3
2022-08-01T12:33:02.656Z,4
2022-08-01T12:38:04.557Z,4
2022-08-01T12:43:06.205Z,5
2022-08-01T12:48:07.793Z,5
2022-08-01T12:53:09.416Z,7
2022-08-01T12:58:18.397Z,4
2022-08-01T13:03:19.968Z,4
2022-08-01T13:08:21.740Z,4
2022-08-01T13:13:28.242Z,5
2022-08-01T13:18:30.404Z,4
2022-08-01T13:24:03.686Z,4
2022-08-01T13:29:05.946Z,5
2022-08-01T13:34:07.596Z,4
2022-08-01T13:39:09.816Z,6
2022-08-01T13:44:11.459Z,5
2022-08-01T13:49:15.971Z,6
2022-08-01T13:54:18.523Z,5
2022-08-01T13:59:20.162Z,5
2022-08-01T14:04:21.848Z,6
2022-08-01T14:09:24.237Z,5
2022-08-01T14:14:26.380Z,3
2022-08-01T14:19:38.910Z,4
2022-08-01T14:24:42.312Z,5
2022-08-01T14:30:02.007Z,5
2022-08-01T14:35:05.747Z,5
2022-08-01T14:40:07.400Z,4
2022-08-01T14:45:09.601Z,3
2022-08-01T14:50:11.222Z,4
2022-08-01T14:55:12.831Z,4
2022-08-01T15:00:14.433Z,5
2022-08-01T15:05:16.082Z,5
2022-08-01T15:10:17.876Z,5
2022-08-01T15:15:19.470Z,4
2022-08-01T15:20:21.075Z,5
2022-08-01T15:25:22.734Z,4
2022-08-01T15:30:27.449Z,5
2022-08-01T15:35:29.264Z,6
2022-08-01T15:40:30.894Z,6
2022-08-01T15:45:48.202Z,4
2022-08-01T15:50:50.467Z,5
2022-08-01T15:55:52.842Z,6
2022-08-01T16:00:54.568Z,5
2022-08-01T16:05:56.347Z,6
2022-08-01T16:10:57.979Z,5
2022-08-01T16:15:59.677Z,6
2022-08-01T16:21:01.325Z,7
2022-08-01T16:26:02.932Z,7
2022-08-01T16:31:35.373Z,5
2022-08-01T16:36:46.318Z,6
2022-08-01T16:41:47.904Z,8
2022-08-01T16:46:49.514Z,7
2022-08-01T16:51:51.142Z,7
2022-08-01T16:56:52.735Z,7
2022-08-01T17:01:59.496Z,9
2022-08-01T17:07:03.777Z,14
2022-08-01T17:12:05.637Z,14
2022-08-01T17:17:07.753Z,16
2022-08-01T17:22:09.602Z,18
2022-08-01T17:27:13.281Z,18
2022-08-01T17:32:15.477Z,15
2022-08-01T17:37:17.087Z,18
2022-08-01T17:42:18.737Z,19
2022-08-01T17:47:40.979Z,17
2022-08-01T17:52:49.989Z,16
2022-08-01T17:57:51.583Z,11
2022-08-01T18:02:53.160Z,12
2022-08-01T18:08:00.299Z,13
2022-08-01T18:13:03.978Z,12
2022-08-01T18:18:07.601Z,14
2022-08-01T18:23:09.214Z,18
2022-08-01T18:28:29.564Z,36
2022-08-01T18:33:34.334Z,34
2022-08-01T18:38:37.379Z,42
2022-08-01T18:43:44.134Z,29
2022-08-01T18:48:45.816Z,33
2022-08-01T18:53:47.371Z,14
2022-08-01T18:58:48.990Z,14
2022-08-01T19:03:50.645Z,17
2022-08-01T19:08:52.262Z,16
2022-08-01T19:13:53.925Z,17
2022-08-01T19:18:55.991Z,17
2022-08-01T19:23:58.308Z,17
2022-08-01T19:28:59.917Z,17
2022-08-01T19:34:01.530Z,17
2022-08-01T19:39:03.133Z,18
2022-08-01T19:44:04.879Z,17
2022-08-01T19:49:06.557Z,16
2022-08-01T19:54:08.429Z,17
2022-08-01T19:59:10.090Z,17
2022-08-01T20:04:11.684Z,18
2022-08-01T20:09:13.315Z,16
2022-08-01T20:14:15.115Z,16
2022-08-01T20:19:16.714Z,15
2022-08-01T20:24:18.312Z,16
2022-08-01T20:29:20.737Z,16
2022-08-01T20:34:22.347Z,16
2022-08-01T20:39:23.933Z,15
2022-08-01T20:44:25.536Z,19
2022-08-01T20:49:27.269Z,17
2022-08-01T20:54:28.980Z,19
2022-08-01T20:59:55.400Z,20
2022-08-01T21:04:58.625Z,18
2022-08-01T21:10:00.402Z,18
2022-08-01T21:15:02.017Z,17
2022-08-01T21:20:03.599Z,19
2022-08-01T21:25:05.216Z,19
2022-08-01T21:30:06.799Z,18
2022-08-01T21:35:16.036Z,16
2022-08-01T21:40:20.193Z,18
2022-08-01T21:45:21.792Z,19
2022-08-01T21:50:23.387Z,22
2022-08-01T21:55:34.833Z,20
2022-08-01T22:00:37.591Z,21
2022-08-01T22:05:50.324Z,22
2022-08-01T22:10:53.185Z,22
2022-08-01T22:15:54.984Z,26
2022-08-01T22:20:56.624Z,21
2022-08-01T22:25:58.190Z,23
2022-08-01T22:30:59.989Z,24
2022-08-01T22:36:01.645Z,20
2022-08-01T22:41:03.226Z,20
2022-08-01T22:46:04.921Z,20
2022-08-01T22:51:06.541Z,22
2022-08-01T22:56:08.170Z,22
2022-08-01T23:01:09.788Z,19
2022-08-01T23:06:11.392Z,22
2022-08-01T23:11:12.997Z,22
2022-08-01T23:16:17.498Z,23
2022-08-01T23:21:19.423Z,21
2022-08-01T23:26:21.035Z,23
2022-08-01T23:31:25.810Z,19
2022-08-01T23:37:02.587Z,22
2022-08-01T23:42:07.397Z,21
2022-08-01T23:47:09.550Z,21
2022-08-01T23:52:20.836Z,19
2022-08-01T23:57:23.540Z,20
